Time;durP1;ratioP1;P1;durP2;ratioP2;P2;SDS_P1;SDS_P2;PMS_P1;PMS_P2;Temp;Humidity;BMP_temperature;BMP_pressure;BME280_temperature;BME280_humidity;BME280_pressure;Samples;Min_cycle;Max_cycle;Signal;HPM_P1;HPM_P2
2021/01/22 00:02:20;;;;;;;8.57;2.28;;;13.20;96.70;;;;;;4828597;29;20153;-71
2021/01/22 00:04:48;;;;;;;7.13;2.50;;;13.20;96.70;;;;;;4834258;29;20859;-71
2021/01/22 00:07:16;;;;;;;7.45;2.10;;;13.20;96.70;;;;;;4830319;29;20045;-70
2021/01/22 00:09:43;;;;;;;6.53;1.67;;;13.20;96.70;;;;;;4829083;29;20148;-70
2021/01/22 00:12:12;;;;;;;8.02;3.42;;;13.10;96.70;;;;;;4830454;29;20069;-71
2021/01/22 00:14:39;;;;;;;24.40;14.00;;;13.10;96.70;;;;;;4829225;29;20078;-71
2021/01/22 00:17:07;;;;;;;7.55;3.58;;;13.20;96.70;;;;;;4826703;29;20045;-72
2021/01/22 00:19:34;;;;;;;5.20;2.17;;;13.20;96.70;;;;;;4832565;29;20083;-71
2021/01/22 00:22:03;;;;;;;5.38;2.13;;;13.20;96.70;;;;;;4830461;29;20141;-71
2021/01/22 00:24:30;;;;;;;8.05;2.28;;;13.30;96.70;;;;;;4830961;29;20045;-71
2021/01/22 00:26:57;;;;;;;8.75;2.70;;;13.20;96.70;;;;;;4828509;29;20066;-71
2021/01/22 00:29:25;;;;;;;10.48;2.08;;;13.20;96.70;;;;;;4835111;29;20123;-71
2021/01/22 00:31:52;;;;;;;8.98;2.10;;;13.20;96.70;;;;;;4830183;29;20046;-70
2021/01/22 00:34:20;;;;;;;9.45;2.40;;;13.10;96.70;;;;;;4833309;29;20506;-71
2021/01/22 00:36:49;;;;;;;10.00;2.20;;;13.10;96.70;;;;;;4832955;29;20394;-71
2021/01/22 00:39:17;;;;;;;7.55;2.35;;;13.10;96.70;;;;;;4831543;29;20045;-71
2021/01/22 00:41:44;;;;;;;12.32;2.65;;;13.00;96.70;;;;;;4828707;29;20110;-70
2021/01/22 00:44:11;;;;;;;12.57;2.78;;;12.90;96.70;;;;;;4834337;29;20409;-70
2021/01/22 00:46:39;;;;;;;12.13;3.35;;;12.80;96.70;;;;;;4830249;29;20053;-70
2021/01/22 00:49:06;;;;;;;11.95;2.58;;;12.70;96.70;;;;;;4830117;29;20057;-70
2021/01/22 00:51:34;;;;;;;10.43;2.58;;;12.60;96.70;;;;;;4828760;29;20074;-71
2021/01/22 00:54:03;;;;;;;10.63;2.42;;;12.50;96.70;;;;;;4829445;29;20042;-71
2021/01/22 00:56:41;;;;;;;7.63;2.65;;;12.50;96.70;;;;;;4830234;29;20042;-71
2021/01/22 00:59:08;;;;;;;9.02;2.88;;;12.50;96.70;;;;;;4843699;29;20046;-70
2021/01/22 01:01:37;;;;;;;15.57;3.30;;;12.40;96.70;;;;;;4830026;29;20065;-71
2021/01/22 01:04:05;;;;;;;11.48;2.63;;;12.50;96.70;;;;;;4823864;29;20057;-71
2021/01/22 01:06:49;;;;;;;14.30;2.70;;;12.50;96.70;;;;;;4827697;29;20082;-70
2021/01/22 01:09:17;;;;;;;12.07;2.80;;;12.60;96.70;;;;;;4828427;29;20045;-71
2021/01/22 01:11:57;;;;;;;11.07;3.03;;;12.60;96.70;;;;;;4834008;29;20092;-71
2021/01/22 01:14:38;;;;;;;13.10;2.97;;;12.50;96.70;;;;;;4833927;29;20054;-70
2021/01/22 01:17:05;;;;;;;15.43;2.75;;;12.50;96.70;;;;;;4831396;29;20050;-71
2021/01/22 01:19:33;;;;;;;10.30;3.45;;;12.50;96.70;;;;;;4824344;29;20042;-71
2021/01/22 01:22:00;;;;;;;10.48;2.40;;;12.50;96.70;;;;;;4829003;29;20138;-70
2021/01/22 01:24:27;;;;;;;11.52;2.67;;;12.40;96.70;;;;;;4830053;29;20504;-71
2021/01/22 01:26:55;;;;;;;11.32;2.92;;;12.40;96.70;;;;;;4830017;29;20060;-70
2021/01/22 01:29:23;;;;;;;12.05;2.65;;;12.40;96.70;;;;;;4825139;29;20042;-70
2021/01/22 01:31:50;;;;;;;11.05;3.03;;;12.30;96.70;;;;;;4831510;29;20049;-70
2021/01/22 01:34:18;;;;;;;12.48;2.47;;;12.30;96.70;;;;;;4830337;29;20038;-70
2021/01/22 01:36:45;;;;;;;9.30;3.63;;;12.20;96.70;;;;;;4848640;29;20050;-70
2021/01/22 01:39:13;;;;;;;7.18;2.28;;;12.20;96.70;;;;;;4830424;29;20038;-71
2021/01/22 01:41:40;;;;;;;6.95;2.25;;;12.20;96.70;;;;;;4834845;29;20515;-71
2021/01/22 01:44:07;;;;;;;11.55;2.85;;;12.10;96.70;;;;;;4827157;29;20502;-71
2021/01/22 01:46:35;;;;;;;12.52;2.30;;;12.10;96.70;;;;;;4826623;29;20094;-71
2021/01/22 01:49:03;;;;;;;9.00;2.42;;;12.10;96.70;;;;;;4832399;29;20297;-71
2021/01/22 01:51:30;;;;;;;7.75;2.80;;;12.10;96.70;;;;;;4814613;29;20110;-70
2021/01/22 01:53:57;;;;;;;10.63;3.00;;;12.10;96.70;;;;;;4827740;29;20045;-70
2021/01/22 01:56:28;;;;;;;11.70;6.43;;;12.10;96.70;;;;;;4832059;29;20042;-70
2021/01/22 01:58:56;;;;;;;13.55;5.20;;;12.10;96.70;;;;;;4833935;29;20077;-70
2021/01/22 02:01:26;;;;;;;9.52;3.15;;;12.10;96.70;;;;;;4837840;29;20118;-71
2021/01/22 02:03:56;;;;;;;9.05;2.20;;;12.10;96.70;;;;;;4848485;29;20060;-70
2021/01/22 02:06:23;;;;;;;13.02;3.40;;;12.10;96.70;;;;;;4828196;29;20053;-70
2021/01/22 02:08:50;;;;;;;8.60;3.13;;;12.10;96.70;;;;;;4836979;29;20054;-71
2021/01/22 02:11:18;;;;;;;9.52;2.47;;;12.10;96.70;;;;;;4831241;29;20097;-71
2021/01/22 02:13:47;;;;;;;8.75;3.25;;;12.10;96.70;;;;;;4832921;29;20134;-70
2021/01/22 02:16:15;;;;;;;9.13;3.80;;;12.10;96.70;;;;;;4830665;29;20480;-70
2021/01/22 02:18:44;;;;;;;7.75;2.95;;;12.10;96.70;;;;;;4832906;29;20099;-70
2021/01/22 02:21:22;;;;;;;10.38;3.42;;;12.00;96.70;;;;;;4834555;29;20080;-70
2021/01/22 02:23:51;;;;;;;9.25;3.15;;;11.90;96.70;;;;;;4831621;29;20046;-70
2021/01/22 02:26:36;;;;;;;4.82;2.08;;;11.80;96.70;;;;;;4818424;29;20038;-70
2021/01/22 02:29:07;;;;;;;11.98;2.75;;;11.80;96.70;;;;;;4832227;29;20049;-70
2021/01/22 02:31:39;;;;;;;14.23;2.78;;;11.80;96.70;;;;;;4833351;29;20038;-71
2021/01/22 02:34:09;;;;;;;17.60;2.92;;;11.90;96.70;;;;;;4832639;29;20042;-70
2021/01/22 02:36:39;;;;;;;15.88;3.10;;;11.90;96.70;;;;;;4832856;29;20406;-70
2021/01/22 02:39:09;;;;;;;13.35;2.92;;;12.00;96.70;;;;;;4835450;29;20057;-70
2021/01/22 02:41:38;;;;;;;12.65;2.72;;;12.00;96.70;;;;;;4829527;29;20509;-70
2021/01/22 02:44:08;;;;;;;11.23;3.05;;;12.00;96.70;;;;;;4833728;29;20537;-70
2021/01/22 02:46:38;;;;;;;14.55;3.05;;;12.00;96.70;;;;;;4841396;29;20137;-70
2021/01/22 02:49:05;;;;;;;16.52;3.03;;;12.00;96.70;;;;;;4828764;29;20050;-71
2021/01/22 02:51:32;;;;;;;14.98;3.20;;;12.00;96.70;;;;;;4833138;29;20053;-70
2021/01/22 02:54:00;;;;;;;14.73;2.92;;;12.00;96.70;;;;;;4839083;29;20523;-70
2021/01/22 02:56:47;;;;;;;11.48;2.33;;;11.90;96.70;;;;;;4829223;29;20042;-70
2021/01/22 02:59:34;;;;;;;10.20;2.78;;;11.90;96.70;;;;;;4844156;29;20072;-70
2021/01/22 03:02:12;;;;;;;13.63;3.05;;;11.80;96.70;;;;;;4845273;29;20049;-70
2021/01/22 03:04:41;;;;;;;12.38;3.60;;;11.80;96.70;;;;;;4828101;29;20057;-70
2021/01/22 03:07:13;;;;;;;12.50;3.60;;;11.80;96.70;;;;;;4830577;29;20484;-71
2021/01/22 03:09:44;;;;;;;13.77;4.03;;;11.80;96.70;;;;;;4833727;29;20125;-70
2021/01/22 03:12:12;;;;;;;13.80;5.43;;;11.70;96.70;;;;;;4836121;29;20045;-70
2021/01/22 03:14:42;;;;;;;14.25;4.13;;;11.70;96.70;;;;;;4825443;29;20077;-70
2021/01/22 03:17:09;;;;;;;10.43;3.25;;;11.70;96.70;;;;;;4828360;29;20038;-70
2021/01/22 03:19:45;;;;;;;10.02;3.38;;;11.60;96.70;;;;;;4830260;29;20421;-70
2021/01/22 03:22:13;;;;;;;10.68;3.22;;;11.60;96.70;;;;;;4827093;29;20045;-70
2021/01/22 03:24:40;;;;;;;15.93;3.90;;;11.60;96.70;;;;;;4824821;29;20054;-70
2021/01/22 03:27:07;;;;;;;11.43;2.85;;;11.70;96.70;;;;;;4840292;29;20054;-70
2021/01/22 03:29:35;;;;;;;11.73;2.72;;;11.70;96.70;;;;;;4834828;29;20501;-70
2021/01/22 03:32:04;;;;;;;9.50;2.80;;;11.60;96.70;;;;;;4830882;29;20106;-70
2021/01/22 03:34:32;;;;;;;7.85;2.20;;;11.60;96.70;;;;;;4828168;29;20050;-70
2021/01/22 03:37:01;;;;;;;8.60;2.55;;;11.60;96.70;;;;;;4829830;29;20064;-71
2021/01/22 03:39:28;;;;;;;11.27;3.85;;;11.60;96.70;;;;;;4827128;29;20049;-70
2021/01/22 03:41:56;;;;;;;10.02;2.55;;;11.60;96.70;;;;;;4835648;29;20058;-70
2021/01/22 03:44:23;;;;;;;9.85;2.80;;;11.60;96.70;;;;;;4831812;29;20045;-70
2021/01/22 03:46:50;;;;;;;12.15;3.28;;;11.60;96.70;;;;;;4833825;29;20141;-70
2021/01/22 03:49:18;;;;;;;12.68;3.25;;;11.50;96.70;;;;;;4831328;29;20045;-70
2021/01/22 03:51:45;;;;;;;7.50;2.40;;;11.50;96.70;;;;;;4831527;29;20045;-70
2021/01/22 03:54:12;;;;;;;12.90;2.80;;;11.50;96.70;;;;;;4816917;29;20038;-70
2021/01/22 03:56:40;;;;;;;9.80;2.45;;;11.50;96.70;;;;;;4846883;29;20140;-70
2021/01/22 03:59:08;;;;;;;14.25;2.92;;;11.50;96.70;;;;;;4832158;29;20121;-70
2021/01/22 04:01:36;;;;;;;11.13;2.65;;;11.50;96.70;;;;;;4832767;29;20586;-70
2021/01/22 04:04:03;;;;;;;8.25;2.65;;;11.50;96.70;;;;;;4830600;29;20046;-69
2021/01/22 04:06:31;;;;;;;11.18;2.97;;;11.50;96.70;;;;;;4830604;29;20477;-70
2021/01/22 04:08:58;;;;;;;8.73;2.60;;;11.50;96.70;;;;;;4828081;29;20052;-70
2021/01/22 04:11:25;;;;;;;8.45;2.72;;;11.50;96.70;;;;;;4812819;29;20280;-70
2021/01/22 04:13:52;;;;;;;8.35;2.50;;;11.50;96.70;;;;;;4828756;29;20054;-70
2021/01/22 04:16:20;;;;;;;12.73;2.97;;;11.50;96.70;;;;;;4828717;29;20098;-70
2021/01/22 04:18:47;;;;;;;8.15;2.25;;;11.50;96.70;;;;;;4828371;29;20069;-70
2021/01/22 04:21:14;;;;;;;9.05;3.17;;;11.40;96.70;;;;;;4826819;29;20142;-71
2021/01/22 04:23:42;;;;;;;10.63;3.15;;;11.40;96.70;;;;;;4836522;29;20118;-70
2021/01/22 04:26:10;;;;;;;12.77;3.33;;;11.40;96.70;;;;;;4817710;29;20073;-70
2021/01/22 04:28:38;;;;;;;9.88;3.20;;;11.40;96.70;;;;;;4833590;29;20056;-70
2021/01/22 04:31:05;;;;;;;9.60;3.33;;;11.40;96.70;;;;;;4829126;29;20133;-70
2021/01/22 04:33:32;;;;;;;10.25;2.85;;;11.40;96.70;;;;;;4830735;29;20069;-70
2021/01/22 04:36:00;;;;;;;10.02;3.85;;;11.40;96.70;;;;;;4831108;29;20569;-70
2021/01/22 04:38:28;;;;;;;9.80;2.78;;;11.40;96.70;;;;;;4832398;29;20042;-70
2021/01/22 04:40:58;;;;;;;8.07;2.97;;;11.40;96.70;;;;;;4831837;29;20048;-70
2021/01/22 04:43:25;;;;;;;13.05;3.00;;;11.40;96.70;;;;;;4827276;29;20045;-71
2021/01/22 04:45:54;;;;;;;8.50;2.67;;;11.50;96.70;;;;;;4826381;29;20593;-70
2021/01/22 04:48:21;;;;;;;7.22;2.33;;;11.50;96.70;;;;;;4833843;29;20046;-71
2021/01/22 04:50:50;;;;;;;10.73;3.10;;;11.50;96.70;;;;;;4829495;29;20050;-70
2021/01/22 04:53:22;;;;;;;7.30;2.30;;;11.50;96.70;;;;;;4841600;29;20041;-71
2021/01/22 04:55:50;;;;;;;11.40;2.45;;;11.50;96.70;;;;;;4827476;29;20050;-70
2021/01/22 04:58:18;;;;;;;13.07;3.15;;;11.40;96.70;;;;;;4830216;29;20901;-70
2021/01/22 05:00:45;;;;;;;11.43;3.47;;;11.40;96.70;;;;;;4830420;29;20052;-71
2021/01/22 05:03:13;;;;;;;10.88;3.38;;;11.40;96.70;;;;;;4842935;29;20049;-70
2021/01/22 05:05:41;;;;;;;7.82;2.55;;;11.40;96.70;;;;;;4828533;29;20821;-70
2021/01/22 05:08:08;;;;;;;11.68;3.70;;;11.30;96.70;;;;;;4831985;29;20046;-70
2021/01/22 05:10:35;;;;;;;7.90;2.80;;;11.30;96.70;;;;;;4832043;29;20069;-70
2021/01/22 05:13:03;;;;;;;6.90;2.90;;;11.30;96.70;;;;;;4828679;29;20046;-70
2021/01/22 05:15:31;;;;;;;9.65;3.50;;;11.30;96.70;;;;;;4830278;29;20439;-70
2021/01/22 05:18:00;;;;;;;6.50;2.45;;;11.30;96.70;;;;;;4826128;29;20046;-70
2021/01/22 05:20:33;;;;;;;7.85;2.40;;;11.20;96.70;;;;;;4825752;29;20589;-71
2021/01/22 05:23:04;;;;;;;10.70;3.20;;;11.20;96.70;;;;;;4829868;29;20057;-70
2021/01/22 05:25:33;;;;;;;9.00;2.78;;;11.20;96.70;;;;;;4832399;29;20118;-70
2021/01/22 05:28:00;;;;;;;7.57;2.38;;;11.30;96.70;;;;;;4828138;29;20050;-70
2021/01/22 05:30:31;;;;;;;9.75;3.30;;;11.30;96.70;;;;;;4830141;29;20042;-70
2021/01/22 05:33:14;;;;;;;10.25;3.75;;;11.30;96.70;;;;;;4832531;29;20046;-70
2021/01/22 05:35:42;;;;;;;10.38;3.78;;;11.30;96.70;;;;;;4833378;29;20066;-70
2021/01/22 05:38:10;;;;;;;5.57;2.30;;;11.20;96.70;;;;;;4835163;29;20048;-70
2021/01/22 05:40:47;;;;;;;9.15;2.75;;;11.20;96.70;;;;;;4833483;29;20122;-70
2021/01/22 05:43:14;;;;;;;6.75;2.90;;;11.20;96.70;;;;;;4834357;29;20052;-70
2021/01/22 05:45:44;;;;;;;9.48;2.78;;;11.20;96.70;;;;;;4850198;29;20047;-70
2021/01/22 05:48:20;;;;;;;6.40;2.25;;;11.20;96.70;;;;;;4832821;29;20087;-70
2021/01/22 05:50:50;;;;;;;5.57;2.72;;;11.20;96.70;;;;;;4849577;29;20091;-70
2021/01/22 05:53:19;;;;;;;7.10;2.33;;;11.30;96.70;;;;;;4845873;29;20608;-70
2021/01/22 05:56:05;;;;;;;9.82;3.08;;;11.20;96.70;;;;;;4830720;29;20103;-71
2021/01/22 05:58:33;;;;;;;9.93;5.53;;;11.20;96.70;;;;;;4844420;29;20481;-70
2021/01/22 06:01:06;;;;;;;10.15;5.07;;;11.20;96.70;;;;;;4831255;29;20140;-70
2021/01/22 06:03:33;;;;;;;14.75;7.60;;;11.30;96.70;;;;;;4832041;29;20045;-70
2021/01/22 06:06:02;;;;;;;18.95;7.45;;;11.30;96.70;;;;;;4834019;29;20060;-72
2021/01/22 06:08:30;;;;;;;20.30;8.48;;;11.30;96.70;;;;;;4828618;29;20132;-71
2021/01/22 06:11:00;;;;;;;19.92;10.07;;;11.30;96.70;;;;;;4833701;29;20057;-70
2021/01/22 06:13:30;;;;;;;13.55;7.53;;;11.30;96.70;;;;;;4834322;29;20454;-70
2021/01/22 06:15:59;;;;;;;21.92;9.52;;;11.30;96.70;;;;;;4829812;29;20049;-70
2021/01/22 06:18:31;;;;;;;17.85;8.85;;;11.30;96.70;;;;;;4834820;29;20054;-70
2021/01/22 06:21:09;;;;;;;17.50;8.95;;;11.30;96.70;;;;;;4835717;29;20046;-70
2021/01/22 06:23:38;;;;;;;14.13;6.95;;;11.40;96.70;;;;;;4830598;29;20442;-70
2021/01/22 06:26:06;;;;;;;14.05;6.50;;;11.40;96.70;;;;;;4830931;29;20052;-70
2021/01/22 06:28:35;;;;;;;14.05;6.82;;;11.40;96.70;;;;;;4828701;29;20121;-70
2021/01/22 06:31:06;;;;;;;17.05;5.82;;;11.30;96.70;;;;;;4813095;29;20054;-70
2021/01/22 06:33:35;;;;;;;15.73;5.63;;;11.40;96.70;;;;;;4834154;29;20050;-70
2021/01/22 06:36:05;;;;;;;10.55;5.78;;;11.40;96.70;;;;;;4829979;29;20062;-69
2021/01/22 06:38:34;;;;;;;12.77;5.30;;;11.40;96.70;;;;;;4830144;29;20456;-71
2021/01/22 06:41:01;;;;;;;10.15;4.50;;;11.40;96.70;;;;;;4835910;29;20390;-71
2021/01/22 06:43:29;;;;;;;8.40;3.97;;;11.40;96.70;;;;;;4830840;29;20081;-70
2021/01/22 06:46:00;;;;;;;13.07;3.78;;;11.40;96.70;;;;;;4832531;29;20816;-70
2021/01/22 06:48:28;;;;;;;12.18;4.20;;;11.40;96.70;;;;;;4834325;29;20033;-70
2021/01/22 06:51:15;;;;;;;14.02;5.13;;;11.40;96.70;;;;;;4829564;29;20053;-70
2021/01/22 06:54:05;;;;;;;10.98;3.72;;;11.40;96.70;;;;;;4830171;29;20497;-70
2021/01/22 06:56:33;;;;;;;9.93;3.97;;;11.40;96.70;;;;;;4830188;29;20060;-70
2021/01/22 06:59:30;;;;;;;12.18;4.30;;;11.40;96.70;;;;;;4838294;29;20843;-70
2021/01/22 07:01:58;;;;;;;9.93;4.63;;;11.40;96.70;;;;;;4833869;29;20054;-70
2021/01/22 07:04:37;;;;;;;9.90;4.40;;;11.40;96.70;;;;;;4830450;29;20053;-70
2021/01/22 07:07:07;;;;;;;11.07;3.95;;;11.40;96.70;;;;;;4831441;29;20393;-70
2021/01/22 07:09:49;;;;;;;10.10;2.95;;;11.40;96.70;;;;;;4829113;29;20192;-70
2021/01/22 07:12:38;;;;;;;12.23;4.55;;;11.50;96.70;;;;;;4829616;29;20441;-70
2021/01/22 07:15:25;;;;;;;10.15;3.92;;;11.50;96.70;;;;;;4832886;29;20081;-70
2021/01/22 07:17:56;;;;;;;10.18;3.97;;;11.50;96.70;;;;;;4845555;29;20167;-70
2021/01/22 07:20:24;;;;;;;13.98;3.90;;;11.50;96.70;;;;;;4847298;29;20462;-70
2021/01/22 07:22:54;;;;;;;8.93;3.28;;;11.50;96.70;;;;;;4832219;29;20133;-70
2021/01/22 07:25:31;;;;;;;11.80;3.53;;;11.50;96.70;;;;;;4830038;29;20534;-71
2021/01/22 07:28:04;;;;;;;8.23;3.90;;;11.50;96.70;;;;;;4847075;29;20056;-70
2021/01/22 07:30:39;;;;;;;14.55;4.90;;;11.50;96.70;;;;;;4831682;29;20517;-71
2021/01/22 07:33:37;;;;;;;12.15;3.72;;;11.50;96.70;;;;;;4828291;29;20042;-70
2021/01/22 07:36:07;;;;;;;14.75;3.38;;;11.50;96.70;;;;;;4831807;29;20282;-70
2021/01/22 07:38:38;;;;;;;9.98;2.95;;;11.50;96.70;;;;;;4827896;29;20164;-71
2021/01/22 07:41:07;;;;;;;12.07;4.40;;;11.60;96.70;;;;;;4830645;29;20466;-70
2021/01/22 07:43:35;;;;;;;10.73;3.97;;;11.60;96.70;;;;;;4833204;29;20071;-69
2021/01/22 07:46:05;;;;;;;8.38;3.10;;;11.60;96.70;;;;;;4830012;29;20045;-70
2021/01/22 07:48:33;;;;;;;10.38;3.20;;;11.60;96.70;;;;;;4848962;29;20406;-70
2021/01/22 07:51:21;;;;;;;11.13;3.42;;;11.60;96.70;;;;;;4833762;29;20070;-70
2021/01/22 07:53:56;;;;;;;15.40;3.33;;;11.60;96.70;;;;;;4830773;29;20046;-70
2021/01/22 07:56:31;;;;;;;11.95;3.75;;;11.60;96.70;;;;;;4844098;29;20058;-70
2021/01/22 07:58:58;;;;;;;9.95;3.97;;;11.60;96.70;;;;;;4829990;29;20581;-69
2021/01/22 08:01:25;;;;;;;7.70;2.95;;;11.60;96.70;;;;;;4830049;29;20617;-69
2021/01/22 08:03:53;;;;;;;11.20;3.78;;;11.60;96.70;;;;;;4845402;29;20042;-69
2021/01/22 08:06:20;;;;;;;9.65;3.58;;;11.60;96.70;;;;;;4832051;29;20468;-71
2021/01/22 08:08:48;;;;;;;10.32;3.78;;;11.60;96.70;;;;;;4828395;29;20054;-70
2021/01/22 08:11:19;;;;;;;12.55;4.13;;;11.60;96.70;;;;;;4831300;29;20184;-69
2021/01/22 08:13:47;;;;;;;10.90;4.13;;;11.70;96.70;;;;;;4831703;29;20171;-71
2021/01/22 08:16:21;;;;;;;14.45;4.55;;;11.70;96.70;;;;;;4834895;29;20045;-72
2021/01/22 08:18:49;;;;;;;10.88;4.45;;;11.70;96.70;;;;;;4830489;29;20149;-72
2021/01/22 08:21:17;;;;;;;10.93;3.70;;;11.70;96.70;;;;;;4829071;29;20129;-71
2021/01/22 08:23:44;;;;;;;10.70;3.83;;;11.80;96.70;;;;;;4825071;29;20042;-71
2021/01/22 08:26:12;;;;;;;11.38;4.75;;;11.80;96.70;;;;;;4815804;29;20050;-71
2021/01/22 08:28:41;;;;;;;11.90;3.97;;;11.90;96.70;;;;;;4848595;29;20053;-71
2021/01/22 08:31:10;;;;;;;13.70;4.68;;;11.90;96.70;;;;;;4831339;29;20474;-69
2021/01/22 08:33:40;;;;;;;11.52;4.47;;;11.90;96.70;;;;;;4842626;29;20057;-71
2021/01/22 08:36:08;;;;;;;12.52;4.10;;;12.00;96.70;;;;;;4831254;29;20050;-71
2021/01/22 08:38:37;;;;;;;11.98;3.90;;;12.00;96.70;;;;;;4829135;29;20066;-70
2021/01/22 08:41:05;;;;;;;13.98;4.60;;;12.10;96.70;;;;;;4831320;29;20495;-72
2021/01/22 08:46:25;;;;;;;13.50;4.05;;;12.10;96.70;;;;;;5113221;27;21012;-73
2021/01/22 08:48:52;;;;;;;19.92;5.05;;;12.20;96.70;;;;;;5113769;28;20134;-73
2021/01/22 08:51:27;;;;;;;19.67;4.00;;;12.20;96.70;;;;;;5086286;28;20056;-73
2021/01/22 08:53:56;;;;;;;18.80;3.60;;;12.40;96.70;;;;;;5085076;28;20519;-73
2021/01/22 08:56:24;;;;;;;18.55;5.07;;;12.50;96.70;;;;;;5089227;28;20028;-73
2021/01/22 08:59:01;;;;;;;14.55;4.57;;;12.70;96.70;;;;;;5087104;28;20113;-71
2021/01/22 09:01:53;;;;;;;24.17;5.25;;;12.80;96.70;;;;;;5086896;28;20127;-72
2021/01/22 09:04:23;;;;;;;20.10;4.00;;;12.80;96.70;;;;;;5082976;28;20044;-72
2021/01/22 09:06:51;;;;;;;17.02;3.65;;;12.80;96.70;;;;;;5090084;28;20047;-71
2021/01/22 09:09:35;;;;;;;17.52;3.60;;;12.80;96.70;;;;;;5095345;28;20324;-73
2021/01/22 09:12:19;;;;;;;13.38;3.53;;;12.80;96.70;;;;;;5086606;27;20175;-73
2021/01/22 09:14:48;;;;;;;17.75;3.17;;;12.90;96.70;;;;;;5087468;28;20044;-74
2021/01/22 09:17:35;;;;;;;19.15;4.40;;;12.90;96.70;;;;;;5085515;28;20760;-74
2021/01/22 09:20:08;;;;;;;18.25;3.95;;;13.00;96.70;;;;;;5087238;28;20152;-73
2021/01/22 09:22:36;;;;;;;15.75;3.92;;;13.00;96.70;;;;;;5089190;28;20031;-74
2021/01/22 09:25:05;;;;;;;18.60;4.20;;;13.00;96.70;;;;;;5084959;28;20126;-73
2021/01/22 09:27:35;;;;;;;17.42;4.15;;;13.10;96.70;;;;;;5092271;28;20134;-74
2021/01/22 09:30:05;;;;;;;25.90;4.63;;;13.10;96.70;;;;;;5087787;28;20518;-73
2021/01/22 09:32:32;;;;;;;18.92;3.83;;;13.10;96.70;;;;;;5087061;28;20059;-73
2021/01/22 09:35:00;;;;;;;18.60;4.22;;;13.20;96.70;;;;;;5083883;28;20445;-73
2021/01/22 09:37:29;;;;;;;20.35;4.00;;;13.20;96.70;;;;;;5081581;28;20074;-73
2021/01/22 09:39:56;;;;;;;25.48;5.15;;;13.20;96.70;;;;;;5087912;28;20041;-74
2021/01/22 09:42:23;;;;;;;20.15;4.70;;;13.30;96.70;;;;;;5087816;28;20119;-73
2021/01/22 09:44:51;;;;;;;22.35;4.50;;;13.40;96.70;;;;;;5085749;28;20134;-74
2021/01/22 09:47:18;;;;;;;21.65;4.38;;;13.40;96.70;;;;;;5085013;28;20093;-73
2021/01/22 09:49:46;;;;;;;21.83;4.13;;;13.40;96.70;;;;;;5069618;28;20157;-73
2021/01/22 09:52:14;;;;;;;19.23;3.85;;;13.50;96.70;;;;;;5092183;28;20044;-73
2021/01/22 09:54:42;;;;;;;18.13;3.80;;;13.50;96.70;;;;;;5085072;28;20048;-74
2021/01/22 09:57:10;;;;;;;23.27;4.97;;;13.60;96.70;;;;;;5078752;28;20043;-73
2021/01/22 09:59:37;;;;;;;20.95;4.18;;;13.60;96.70;;;;;;5071303;28;20076;-74
2021/01/22 10:02:04;;;;;;;15.32;3.65;;;13.60;96.70;;;;;;5075137;28;20406;-73
2021/01/22 10:04:35;;;;;;;18.60;3.85;;;13.70;96.70;;;;;;5074834;28;20032;-74
2021/01/22 10:07:03;;;;;;;21.63;3.97;;;13.80;96.70;;;;;;5068881;28;20044;-74
2021/01/22 10:09:31;;;;;;;14.85;3.17;;;13.90;96.70;;;;;;5074014;28;20572;-74
2021/01/22 10:11:59;;;;;;;17.15;3.65;;;13.90;96.70;;;;;;5076324;28;20675;-72
2021/01/22 10:14:27;;;;;;;16.33;4.03;;;13.90;96.70;;;;;;5069360;28;20037;-73
2021/01/22 10:16:55;;;;;;;13.63;3.60;;;13.90;96.70;;;;;;5073468;28;20507;-73
2021/01/22 10:19:23;;;;;;;14.13;3.60;;;14.00;96.70;;;;;;5060182;28;20042;-73
2021/01/22 10:21:50;;;;;;;17.27;4.75;;;14.00;96.70;;;;;;5067228;28;20490;-73
2021/01/22 10:24:18;;;;;;;19.95;3.88;;;14.10;96.70;;;;;;5072250;28;20449;-74
2021/01/22 10:26:46;;;;;;;17.50;3.70;;;14.10;96.70;;;;;;5083521;28;20042;-73
2021/01/22 10:29:13;;;;;;;15.07;3.83;;;14.10;96.70;;;;;;5075414;28;20401;-73
2021/01/22 10:31:41;;;;;;;19.70;4.75;;;14.20;96.70;;;;;;5069213;28;20123;-72
2021/01/22 10:34:09;;;;;;;18.05;4.78;;;14.20;96.70;;;;;;5069736;28;20036;-73
2021/01/22 10:36:37;;;;;;;15.93;4.20;;;14.30;96.70;;;;;;5066071;28;20499;-73
2021/01/22 10:39:05;;;;;;;17.33;3.95;;;14.30;96.70;;;;;;5063496;28;20067;-72
2021/01/22 10:41:34;;;;;;;16.15;3.38;;;14.40;96.70;;;;;;5074824;28;20068;-72
2021/01/22 10:44:04;;;;;;;16.25;3.17;;;14.40;96.70;;;;;;5072345;28;20034;-73
2021/01/22 10:46:31;;;;;;;17.35;3.50;;;14.50;96.70;;;;;;5072513;28;20498;-73
2021/01/22 10:49:00;;;;;;;12.13;2.60;;;14.60;96.70;;;;;;5065355;28;20036;-73
2021/01/22 10:51:28;;;;;;;17.52;3.47;;;14.60;96.70;;;;;;5071088;28;20140;-73
2021/01/22 10:53:56;;;;;;;19.35;3.60;;;14.60;96.70;;;;;;5070549;28;21098;-73
2021/01/22 10:56:25;;;;;;;16.48;3.47;;;14.70;96.70;;;;;;5068158;28;20044;-73
2021/01/22 10:58:52;;;;;;;14.25;3.30;;;14.70;96.70;;;;;;5068444;28;20428;-73
2021/01/22 11:01:21;;;;;;;15.65;3.15;;;14.80;96.70;;;;;;5069956;28;20132;-74
2021/01/22 11:03:48;;;;;;;16.60;4.07;;;14.90;96.70;;;;;;5070042;28;20055;-74
2021/01/22 11:06:16;;;;;;;15.23;3.45;;;14.90;96.70;;;;;;5068476;28;20429;-73
2021/01/22 11:08:43;;;;;;;24.17;7.97;;;15.00;96.70;;;;;;5069613;28;20627;-74
2021/01/22 11:11:11;;;;;;;15.23;5.03;;;15.00;96.70;;;;;;5070252;28;20043;-73
2021/01/22 11:13:39;;;;;;;21.92;6.25;;;15.00;96.70;;;;;;5072916;28;20074;-73
2021/01/22 11:16:06;;;;;;;15.10;4.60;;;15.00;96.70;;;;;;5070838;28;20048;-73
2021/01/22 11:18:35;;;;;;;19.65;7.80;;;14.90;96.70;;;;;;5069315;28;20036;-73
2021/01/22 11:21:03;;;;;;;20.60;5.45;;;15.00;96.70;;;;;;5070086;28;20396;-72
2021/01/22 11:23:31;;;;;;;20.35;7.30;;;15.00;96.70;;;;;;5074439;28;20032;-73
2021/01/22 11:25:58;;;;;;;10.90;2.90;;;15.00;96.70;;;;;;5063951;28;20136;-73
2021/01/22 11:28:25;;;;;;;17.42;3.78;;;14.90;96.70;;;;;;5072300;28;20036;-73
2021/01/22 11:30:53;;;;;;;18.05;3.17;;;14.90;96.70;;;;;;5068384;28;20047;-73
2021/01/22 11:33:21;;;;;;;11.95;2.80;;;14.90;96.70;;;;;;5067219;28;20064;-74
2021/01/22 11:35:50;;;;;;;13.38;3.30;;;14.90;96.70;;;;;;5069533;28;20048;-73
2021/01/22 11:38:17;;;;;;;16.67;3.80;;;14.80;96.70;;;;;;5068947;28;20627;-74
2021/01/22 11:41:14;;;;;;;17.10;4.65;;;14.80;96.70;;;;;;5074186;28;20040;-74
2021/01/22 11:43:56;;;;;;;16.45;2.60;;;14.80;96.70;;;;;;4891824;29;20450;-74
2021/01/22 11:46:23;;;;;;;16.55;3.83;;;14.70;96.70;;;;;;5053537;28;20283;-74
2021/01/22 11:48:51;;;;;;;14.25;3.20;;;14.70;96.70;;;;;;5070191;28;20052;-73
2021/01/22 11:51:20;;;;;;;15.55;3.05;;;14.70;96.70;;;;;;5068533;28;20598;-73
2021/01/22 11:53:47;;;;;;;16.10;3.45;;;14.70;96.70;;;;;;5071654;28;20681;-73
2021/01/22 11:56:14;;;;;;;14.18;3.00;;;14.70;96.70;;;;;;5058093;28;20156;-73
2021/01/22 11:58:42;;;;;;;13.82;2.90;;;14.60;96.70;;;;;;5065770;28;20066;-73
2021/01/22 12:01:10;;;;;;;11.23;3.17;;;14.60;96.70;;;;;;5089173;28;20049;-73
2021/01/22 12:03:37;;;;;;;18.60;4.20;;;14.70;96.70;;;;;;5072897;28;20820;-74
2021/01/22 12:06:05;;;;;;;10.73;2.55;;;14.70;96.70;;;;;;5067218;28;20047;-74
2021/01/22 12:08:33;;;;;;;15.60;3.20;;;14.70;96.70;;;;;;5069296;28;20458;-73
2021/01/22 12:11:02;;;;;;;11.10;2.78;;;14.70;96.70;;;;;;5069739;28;20449;-72
2021/01/22 12:13:29;;;;;;;15.68;3.00;;;14.80;96.70;;;;;;5072537;28;20048;-73
2021/01/22 12:15:57;;;;;;;15.70;3.85;;;14.80;96.70;;;;;;5051698;28;20036;-76
2021/01/22 12:18:24;;;;;;;56.40;31.63;;;14.80;96.70;;;;;;5074168;28;20402;-72
2021/01/22 12:20:52;;;;;;;26.58;11.38;;;14.80;96.70;;;;;;5072854;28;20097;-71
2021/01/22 12:23:19;;;;;;;17.08;6.70;;;14.80;96.70;;;;;;5052857;28;20111;-72
2021/01/22 12:25:47;;;;;;;14.10;4.32;;;14.70;96.70;;;;;;5069898;28;20044;-71
2021/01/22 12:28:15;;;;;;;14.35;4.55;;;14.70;96.70;;;;;;5069860;28;20488;-72
2021/01/22 12:30:44;;;;;;;22.42;6.93;;;14.70;96.70;;;;;;5071808;28;20086;-73
2021/01/22 12:33:13;;;;;;;18.13;6.97;;;14.60;96.70;;;;;;5071301;28;20055;-73
2021/01/22 12:35:41;;;;;;;19.52;4.90;;;14.60;96.70;;;;;;5071445;28;20037;-71
2021/01/22 12:38:09;;;;;;;16.65;4.30;;;14.60;96.70;;;;;;5050377;28;20411;-72
2021/01/22 12:40:36;;;;;;;18.13;4.32;;;14.60;96.70;;;;;;5070744;28;20455;-72
2021/01/22 12:43:05;;;;;;;19.00;4.63;;;14.60;96.70;;;;;;5071277;28;20044;-74
2021/01/22 12:45:34;;;;;;;14.98;3.83;;;14.60;96.70;;;;;;5071104;28;20139;-74
2021/01/22 12:48:06;;;;;;;17.63;4.07;;;14.60;96.70;;;;;;5070484;28;20082;-74
2021/01/22 12:50:33;;;;;;;12.18;3.33;;;14.60;96.70;;;;;;5062187;28;20685;-74
2021/01/22 12:53:02;;;;;;;14.32;3.40;;;14.60;96.70;;;;;;5065678;28;20438;-73
2021/01/22 12:55:30;;;;;;;21.67;3.63;;;14.60;96.70;;;;;;5073402;28;20048;-73